sensor_id;sensor_type;location;lat;lon;timestamp;P1;durP1;ratioP1;P2;durP2;ratioP2
8572;SDS011;4324;42.012;24.872;2023-06-05T00:00:31;8.67;;;6.90;;
8572;SDS011;4324;42.012;24.872;2023-06-05T00:02:58;6.57;;;5.97;;
8572;SDS011;4324;42.012;24.872;2023-06-05T00:05:25;8.10;;;5.80;;
8572;SDS011;4324;42.012;24.872;2023-06-05T00:07:54;9.60;;;5.73;;
8572;SDS011;4324;42.012;24.872;2023-06-05T00:10:21;6.60;;;5.90;;
8572;SDS011;4324;42.012;24.872;2023-06-05T00:12:48;8.73;;;5.93;;
8572;SDS011;4324;42.012;24.872;2023-06-05T00:15:15;10.87;;;5.87;;
8572;SDS011;4324;42.012;24.872;2023-06-05T00:17:41;7.33;;;6.13;;
8572;SDS011;4324;42.012;24.872;2023-06-05T00:20:10;6.97;;;5.80;;
8572;SDS011;4324;42.012;24.872;2023-06-05T00:22:37;7.50;;;6.20;;
8572;SDS011;4324;42.012;24.872;2023-06-05T00:25:07;11.67;;;7.07;;
8572;SDS011;4324;42.012;24.872;2023-06-05T00:27:34;8.87;;;6.33;;
8572;SDS011;4324;42.012;24.872;2023-06-05T00:30:01;7.40;;;6.60;;
8572;SDS011;4324;42.012;24.872;2023-06-05T00:32:28;7.97;;;6.30;;
8572;SDS011;4324;42.012;24.872;2023-06-05T00:34:55;10.70;;;6.37;;
8572;SDS011;4324;42.012;24.872;2023-06-05T00:37:21;7.40;;;5.80;;
8572;SDS011;4324;42.012;24.872;2023-06-05T00:39:50;6.83;;;5.90;;
8572;SDS011;4324;42.012;24.872;2023-06-05T00:42:18;7.90;;;6.10;;
8572;SDS011;4324;42.012;24.872;2023-06-05T00:44:45;8.07;;;5.63;;
8572;SDS011;4324;42.012;24.872;2023-06-05T00:47:13;8.57;;;6.30;;
8572;SDS011;4324;42.012;24.872;2023-06-05T00:49:40;9.00;;;5.63;;
8572;SDS011;4324;42.012;24.872;2023-06-05T00:52:07;10.10;;;6.73;;
8572;SDS011;4324;42.012;24.872;2023-06-05T00:54:35;8.00;;;5.37;;
8572;SDS011;4324;42.012;24.872;2023-06-05T00:57:02;8.40;;;5.50;;
8572;SDS011;4324;42.012;24.872;2023-06-05T00:59:33;9.77;;;5.60;;
8572;SDS011;4324;42.012;24.872;2023-06-05T01:02:02;7.03;;;6.07;;
8572;SDS011;4324;42.012;24.872;2023-06-05T01:04:30;7.90;;;6.50;;
8572;SDS011;4324;42.012;24.872;2023-06-05T01:06:58;7.30;;;6.60;;
8572;SDS011;4324;42.012;24.872;2023-06-05T01:09:26;7.63;;;7.00;;
8572;SDS011;4324;42.012;24.872;2023-06-05T01:11:55;8.57;;;7.67;;
8572;SDS011;4324;42.012;24.872;2023-06-05T01:14:27;7.63;;;6.93;;
8572;SDS011;4324;42.012;24.872;2023-06-05T01:16:59;7.50;;;6.90;;
8572;SDS011;4324;42.012;24.872;2023-06-05T01:19:30;7.73;;;7.00;;
8572;SDS011;4324;42.012;24.872;2023-06-05T01:21:58;7.17;;;6.60;;
8572;SDS011;4324;42.012;24.872;2023-06-05T01:24:28;7.93;;;7.33;;
8572;SDS011;4324;42.012;24.872;2023-06-05T01:26:58;8.70;;;7.87;;
8572;SDS011;4324;42.012;24.872;2023-06-05T01:29:34;14.33;;;12.83;;
8572;SDS011;4324;42.012;24.872;2023-06-05T01:32:06;11.40;;;9.60;;
8572;SDS011;4324;42.012;24.872;2023-06-05T01:34:41;9.43;;;8.53;;
8572;SDS011;4324;42.012;24.872;2023-06-05T01:37:11;8.37;;;7.57;;
8572;SDS011;4324;42.012;24.872;2023-06-05T01:39:41;8.43;;;7.63;;
8572;SDS011;4324;42.012;24.872;2023-06-05T01:42:09;7.90;;;7.30;;
8572;SDS011;4324;42.012;24.872;2023-06-05T01:44:37;7.90;;;7.30;;
8572;SDS011;4324;42.012;24.872;2023-06-05T01:47:06;8.60;;;7.90;;
8572;SDS011;4324;42.012;24.872;2023-06-05T01:49:34;9.70;;;8.90;;
8572;SDS011;4324;42.012;24.872;2023-06-05T01:52:01;9.13;;;8.33;;
8572;SDS011;4324;42.012;24.872;2023-06-05T01:54:28;8.40;;;7.60;;
8572;SDS011;4324;42.012;24.872;2023-06-05T01:56:59;8.77;;;7.97;;
8572;SDS011;4324;42.012;24.872;2023-06-05T01:59:26;8.87;;;8.07;;
8572;SDS011;4324;42.012;24.872;2023-06-05T02:01:53;9.60;;;8.60;;
8572;SDS011;4324;42.012;24.872;2023-06-05T02:04:20;9.47;;;8.53;;
8572;SDS011;4324;42.012;24.872;2023-06-05T02:06:47;10.03;;;9.13;;
8572;SDS011;4324;42.012;24.872;2023-06-05T02:09:14;9.87;;;8.87;;
8572;SDS011;4324;42.012;24.872;2023-06-05T02:11:41;9.27;;;8.43;;
8572;SDS011;4324;42.012;24.872;2023-06-05T02:14:11;10.57;;;9.47;;
8572;SDS011;4324;42.012;24.872;2023-06-05T02:16:39;10.03;;;9.23;;
8572;SDS011;4324;42.012;24.872;2023-06-05T02:19:06;11.00;;;9.90;;
8572;SDS011;4324;42.012;24.872;2023-06-05T02:21:33;10.40;;;9.30;;
8572;SDS011;4324;42.012;24.872;2023-06-05T02:24:00;11.00;;;10.00;;
8572;SDS011;4324;42.012;24.872;2023-06-05T02:26:27;13.40;;;10.93;;
8572;SDS011;4324;42.012;24.872;2023-06-05T02:28:54;14.03;;;11.33;;
8572;SDS011;4324;42.012;24.872;2023-06-05T02:31:23;13.37;;;12.07;;
8572;SDS011;4324;42.012;24.872;2023-06-05T02:33:51;13.53;;;12.13;;
8572;SDS011;4324;42.012;24.872;2023-06-05T02:36:19;13.83;;;12.33;;
8572;SDS011;4324;42.012;24.872;2023-06-05T02:38:46;15.43;;;13.83;;
8572;SDS011;4324;42.012;24.872;2023-06-05T02:41:15;15.60;;;13.77;;
8572;SDS011;4324;42.012;24.872;2023-06-05T02:43:44;17.80;;;13.80;;
8572;SDS011;4324;42.012;24.872;2023-06-05T02:46:11;14.57;;;13.13;;
8572;SDS011;4324;42.012;24.872;2023-06-05T02:48:39;15.70;;;14.00;;
8572;SDS011;4324;42.012;24.872;2023-06-05T02:51:06;14.67;;;13.30;;
8572;SDS011;4324;42.012;24.872;2023-06-05T02:53:35;14.23;;;12.83;;
8572;SDS011;4324;42.012;24.872;2023-06-05T02:56:02;13.93;;;12.23;;
8572;SDS011;4324;42.012;24.872;2023-06-05T02:58:29;15.70;;;12.80;;
8572;SDS011;4324;42.012;24.872;2023-06-05T03:00:58;13.30;;;11.90;;
8572;SDS011;4324;42.012;24.872;2023-06-05T03:03:28;14.83;;;12.43;;
8572;SDS011;4324;42.012;24.872;2023-06-05T03:05:57;13.43;;;12.13;;
8572;SDS011;4324;42.012;24.872;2023-06-05T03:08:29;13.37;;;11.90;;
8572;SDS011;4324;42.012;24.872;2023-06-05T03:10:57;14.80;;;12.60;;
8572;SDS011;4324;42.012;24.872;2023-06-05T03:13:24;16.37;;;12.40;;
8572;SDS011;4324;42.012;24.872;2023-06-05T03:15:52;16.20;;;12.93;;
8572;SDS011;4324;42.012;24.872;2023-06-05T03:18:22;13.77;;;12.30;;
8572;SDS011;4324;42.012;24.872;2023-06-05T03:20:50;12.60;;;11.30;;
8572;SDS011;4324;42.012;24.872;2023-06-05T03:23:22;12.17;;;10.63;;
8572;SDS011;4324;42.012;24.872;2023-06-05T03:25:49;11.90;;;10.80;;
8572;SDS011;4324;42.012;24.872;2023-06-05T03:28:16;13.53;;;11.43;;
8572;SDS011;4324;42.012;24.872;2023-06-05T03:30:44;12.77;;;10.67;;
8572;SDS011;4324;42.012;24.872;2023-06-05T03:33:11;12.10;;;10.73;;
8572;SDS011;4324;42.012;24.872;2023-06-05T03:35:40;11.83;;;10.60;;
8572;SDS011;4324;42.012;24.872;2023-06-05T03:38:07;11.23;;;8.30;;
8572;SDS011;4324;42.012;24.872;2023-06-05T03:40:36;11.13;;;8.13;;
8572;SDS011;4324;42.012;24.872;2023-06-05T03:43:04;9.87;;;7.40;;
8572;SDS011;4324;42.012;24.872;2023-06-05T03:45:31;7.90;;;7.10;;
8572;SDS011;4324;42.012;24.872;2023-06-05T03:47:58;12.27;;;6.83;;
8572;SDS011;4324;42.012;24.872;2023-06-05T03:50:26;8.20;;;6.70;;
8572;SDS011;4324;42.012;24.872;2023-06-05T03:52:53;12.37;;;7.00;;
8572;SDS011;4324;42.012;24.872;2023-06-05T03:55:27;12.43;;;7.00;;
8572;SDS011;4324;42.012;24.872;2023-06-05T03:58:09;13.17;;;7.00;;
8572;SDS011;4324;42.012;24.872;2023-06-05T04:00:38;10.93;;;6.60;;
8572;SDS011;4324;42.012;24.872;2023-06-05T04:03:05;14.80;;;8.90;;
8572;SDS011;4324;42.012;24.872;2023-06-05T04:05:33;14.97;;;9.90;;
8572;SDS011;4324;42.012;24.872;2023-06-05T04:08:00;11.30;;;8.77;;
8572;SDS011;4324;42.012;24.872;2023-06-05T04:10:27;10.77;;;8.30;;
8572;SDS011;4324;42.012;24.872;2023-06-05T04:12:54;10.00;;;8.93;;
8572;SDS011;4324;42.012;24.872;2023-06-05T04:15:23;8.63;;;6.23;;
8572;SDS011;4324;42.012;24.872;2023-06-05T04:17:50;8.87;;;6.90;;
8572;SDS011;4324;42.012;24.872;2023-06-05T04:20:18;9.83;;;6.50;;
8572;SDS011;4324;42.012;24.872;2023-06-05T04:22:45;7.53;;;5.63;;
8572;SDS011;4324;42.012;24.872;2023-06-05T04:25:12;8.53;;;5.00;;
8572;SDS011;4324;42.012;24.872;2023-06-05T04:27:40;8.17;;;5.70;;
8572;SDS011;4324;42.012;24.872;2023-06-05T04:30:09;8.57;;;6.43;;
8572;SDS011;4324;42.012;24.872;2023-06-05T04:32:39;7.13;;;5.20;;
8572;SDS011;4324;42.012;24.872;2023-06-05T04:35:18;8.10;;;5.73;;
8572;SDS011;4324;42.012;24.872;2023-06-05T04:37:45;8.27;;;5.20;;
8572;SDS011;4324;42.012;24.872;2023-06-05T04:40:12;5.43;;;4.57;;
8572;SDS011;4324;42.012;24.872;2023-06-05T04:42:40;6.80;;;3.90;;
8572;SDS011;4324;42.012;24.872;2023-06-05T04:45:07;6.17;;;4.17;;
8572;SDS011;4324;42.012;24.872;2023-06-05T04:47:35;7.17;;;5.67;;
8572;SDS011;4324;42.012;24.872;2023-06-05T04:50:04;7.80;;;4.53;;
8572;SDS011;4324;42.012;24.872;2023-06-05T04:52:32;5.33;;;4.67;;
8572;SDS011;4324;42.012;24.872;2023-06-05T04:55:00;7.97;;;5.10;;
8572;SDS011;4324;42.012;24.872;2023-06-05T04:57:27;9.53;;;5.70;;
8572;SDS011;4324;42.012;24.872;2023-06-05T04:59:54;5.23;;;4.67;;
8572;SDS011;4324;42.012;24.872;2023-06-05T05:02:22;10.53;;;5.80;;
8572;SDS011;4324;42.012;24.872;2023-06-05T05:04:49;8.77;;;6.23;;
8572;SDS011;4324;42.012;24.872;2023-06-05T05:07:18;13.97;;;8.93;;
8572;SDS011;4324;42.012;24.872;2023-06-05T05:09:48;12.33;;;8.13;;
8572;SDS011;4324;42.012;24.872;2023-06-05T05:12:15;5.97;;;5.47;;
8572;SDS011;4324;42.012;24.872;2023-06-05T05:14:45;5.80;;;5.20;;
8572;SDS011;4324;42.012;24.872;2023-06-05T05:17:12;6.67;;;5.57;;
8572;SDS011;4324;42.012;24.872;2023-06-05T05:19:42;7.70;;;5.97;;
8572;SDS011;4324;42.012;24.872;2023-06-05T05:22:09;8.40;;;6.27;;
8572;SDS011;4324;42.012;24.872;2023-06-05T05:24:37;8.17;;;5.73;;
8572;SDS011;4324;42.012;24.872;2023-06-05T05:27:04;13.70;;;6.37;;
8572;SDS011;4324;42.012;24.872;2023-06-05T05:29:31;10.60;;;6.63;;
8572;SDS011;4324;42.012;24.872;2023-06-05T05:31:58;12.37;;;7.70;;
8572;SDS011;4324;42.012;24.872;2023-06-05T05:34:25;9.27;;;6.53;;
8572;SDS011;4324;42.012;24.872;2023-06-05T05:36:52;12.90;;;7.10;;
8572;SDS011;4324;42.012;24.872;2023-06-05T05:39:19;9.53;;;6.00;;
8572;SDS011;4324;42.012;24.872;2023-06-05T05:41:47;10.27;;;6.20;;
8572;SDS011;4324;42.012;24.872;2023-06-05T05:44:14;8.27;;;6.30;;
8572;SDS011;4324;42.012;24.872;2023-06-05T05:46:45;10.60;;;6.73;;
8572;SDS011;4324;42.012;24.872;2023-06-05T05:49:12;11.57;;;7.60;;
8572;SDS011;4324;42.012;24.872;2023-06-05T05:51:39;11.17;;;9.77;;
8572;SDS011;4324;42.012;24.872;2023-06-05T05:54:06;11.53;;;10.43;;
8572;SDS011;4324;42.012;24.872;2023-06-05T05:56:33;14.90;;;12.20;;
8572;SDS011;4324;42.012;24.872;2023-06-05T05:59:03;15.57;;;13.93;;
8572;SDS011;4324;42.012;24.872;2023-06-05T06:01:30;16.30;;;14.67;;
8572;SDS011;4324;42.012;24.872;2023-06-05T06:03:57;17.07;;;15.37;;
8572;SDS011;4324;42.012;24.872;2023-06-05T06:06:24;17.90;;;15.93;;
8572;SDS011;4324;42.012;24.872;2023-06-05T06:08:51;19.93;;;17.27;;
8572;SDS011;4324;42.012;24.872;2023-06-05T06:11:18;20.83;;;18.63;;
8572;SDS011;4324;42.012;24.872;2023-06-05T06:13:45;18.17;;;16.27;;
8572;SDS011;4324;42.012;24.872;2023-06-05T06:16:14;19.87;;;16.30;;
8572;SDS011;4324;42.012;24.872;2023-06-05T06:18:41;17.63;;;15.83;;
8572;SDS011;4324;42.012;24.872;2023-06-05T06:21:08;16.73;;;15.00;;
8572;SDS011;4324;42.012;24.872;2023-06-05T06:23:35;14.73;;;13.30;;
8572;SDS011;4324;42.012;24.872;2023-06-05T06:26:03;16.23;;;14.60;;
8572;SDS011;4324;42.012;24.872;2023-06-05T06:28:31;16.43;;;14.60;;
8572;SDS011;4324;42.012;24.872;2023-06-05T06:30:58;16.93;;;15.13;;
8572;SDS011;4324;42.012;24.872;2023-06-05T06:33:27;18.70;;;16.03;;
8572;SDS011;4324;42.012;24.872;2023-06-05T06:35:54;17.10;;;15.20;;
8572;SDS011;4324;42.012;24.872;2023-06-05T06:38:23;20.57;;;17.20;;
8572;SDS011;4324;42.012;24.872;2023-06-05T06:40:55;19.13;;;17.00;;
8572;SDS011;4324;42.012;24.872;2023-06-05T06:43:22;19.63;;;17.53;;
8572;SDS011;4324;42.012;24.872;2023-06-05T06:45:48;21.67;;;18.77;;
8572;SDS011;4324;42.012;24.872;2023-06-05T06:48:16;20.00;;;17.80;;
8572;SDS011;4324;42.012;24.872;2023-06-05T06:50:45;21.27;;;19.00;;
8572;SDS011;4324;42.012;24.872;2023-06-05T06:53:12;23.90;;;21.00;;
8572;SDS011;4324;42.012;24.872;2023-06-05T06:55:39;25.60;;;20.83;;
8572;SDS011;4324;42.012;24.872;2023-06-05T06:58:06;26.27;;;20.13;;
8572;SDS011;4324;42.012;24.872;2023-06-05T07:00:33;25.17;;;22.43;;
8572;SDS011;4324;42.012;24.872;2023-06-05T07:03:02;22.83;;;20.57;;
8572;SDS011;4324;42.012;24.872;2023-06-05T07:05:29;28.37;;;20.00;;
8572;SDS011;4324;42.012;24.872;2023-06-05T07:07:58;21.17;;;19.03;;
8572;SDS011;4324;42.012;24.872;2023-06-05T07:10:26;20.60;;;18.47;;
8572;SDS011;4324;42.012;24.872;2023-06-05T07:12:54;20.43;;;18.17;;
8572;SDS011;4324;42.012;24.872;2023-06-05T07:15:21;21.73;;;18.70;;
8572;SDS011;4324;42.012;24.872;2023-06-05T07:17:51;20.40;;;18.27;;
8572;SDS011;4324;42.012;24.872;2023-06-05T07:20:18;19.20;;;17.27;;
8572;SDS011;4324;42.012;24.872;2023-06-05T07:22:44;22.77;;;18.73;;
8572;SDS011;4324;42.012;24.872;2023-06-05T07:25:13;22.73;;;20.27;;
8572;SDS011;4324;42.012;24.872;2023-06-05T07:27:42;25.67;;;22.87;;
8572;SDS011;4324;42.012;24.872;2023-06-05T07:30:09;23.33;;;21.00;;
8572;SDS011;4324;42.012;24.872;2023-06-05T07:32:38;24.87;;;22.20;;
8572;SDS011;4324;42.012;24.872;2023-06-05T07:35:06;24.20;;;21.73;;
8572;SDS011;4324;42.012;24.872;2023-06-05T07:37:34;26.47;;;23.00;;
8572;SDS011;4324;42.012;24.872;2023-06-05T07:40:01;24.03;;;21.43;;
8572;SDS011;4324;42.012;24.872;2023-06-05T07:42:29;23.63;;;21.13;;
8572;SDS011;4324;42.012;24.872;2023-06-05T07:44:56;22.97;;;20.87;;
8572;SDS011;4324;42.012;24.872;2023-06-05T07:47:23;21.70;;;19.53;;
8572;SDS011;4324;42.012;24.872;2023-06-05T07:49:56;21.80;;;19.60;;
8572;SDS011;4324;42.012;24.872;2023-06-05T07:52:25;23.60;;;21.10;;
8572;SDS011;4324;42.012;24.872;2023-06-05T07:54:52;23.87;;;21.40;;
8572;SDS011;4324;42.012;24.872;2023-06-05T07:57:19;25.33;;;22.47;;
8572;SDS011;4324;42.012;24.872;2023-06-05T07:59:48;26.70;;;23.83;;
8572;SDS011;4324;42.012;24.872;2023-06-05T08:02:15;28.13;;;23.00;;
8572;SDS011;4324;42.012;24.872;2023-06-05T08:04:43;27.73;;;24.40;;
8572;SDS011;4324;42.012;24.872;2023-06-05T08:07:10;26.70;;;23.77;;
8572;SDS011;4324;42.012;24.872;2023-06-05T08:09:37;25.90;;;23.20;;
8572;SDS011;4324;42.012;24.872;2023-06-05T08:12:04;28.77;;;25.73;;
8572;SDS011;4324;42.012;24.872;2023-06-05T08:14:32;26.83;;;23.40;;
8572;SDS011;4324;42.012;24.872;2023-06-05T08:17:02;30.17;;;23.40;;
8572;SDS011;4324;42.012;24.872;2023-06-05T08:19:28;27.43;;;22.90;;
8572;SDS011;4324;42.012;24.872;2023-06-05T08:21:55;29.30;;;22.77;;
8572;SDS011;4324;42.012;24.872;2023-06-05T08:24:26;24.67;;;22.07;;
8572;SDS011;4324;42.012;24.872;2023-06-05T08:26:54;22.63;;;20.20;;
8572;SDS011;4324;42.012;24.872;2023-06-05T08:29:21;23.63;;;21.23;;
8572;SDS011;4324;42.012;24.872;2023-06-05T08:31:48;25.07;;;22.20;;
8572;SDS011;4324;42.012;24.872;2023-06-05T08:34:16;23.87;;;21.37;;
8572;SDS011;4324;42.012;24.872;2023-06-05T08:36:43;24.00;;;21.43;;
8572;SDS011;4324;42.012;24.872;2023-06-05T08:39:10;26.23;;;20.10;;
8572;SDS011;4324;42.012;24.872;2023-06-05T08:41:37;22.37;;;19.97;;
8572;SDS011;4324;42.012;24.872;2023-06-05T08:44:05;24.27;;;20.50;;
8572;SDS011;4324;42.012;24.872;2023-06-05T08:46:32;22.50;;;19.50;;
8572;SDS011;4324;42.012;24.872;2023-06-05T08:49:04;21.77;;;19.57;;
8572;SDS011;4324;42.012;24.872;2023-06-05T08:51:37;20.33;;;18.10;;
8572;SDS011;4324;42.012;24.872;2023-06-05T08:54:05;18.27;;;16.43;;
8572;SDS011;4324;42.012;24.872;2023-06-05T08:56:37;18.30;;;16.50;;
8572;SDS011;4324;42.012;24.872;2023-06-05T08:59:05;23.57;;;21.10;;
8572;SDS011;4324;42.012;24.872;2023-06-05T09:01:32;19.00;;;17.10;;
8572;SDS011;4324;42.012;24.872;2023-06-05T09:03:59;20.57;;;18.57;;
8572;SDS011;4324;42.012;24.872;2023-06-05T09:06:26;13.77;;;11.53;;
8572;SDS011;4324;42.012;24.872;2023-06-05T09:08:55;16.67;;;15.17;;
8572;SDS011;4324;42.012;24.872;2023-06-05T09:11:23;12.13;;;11.13;;
8572;SDS011;4324;42.012;24.872;2023-06-05T09:13:52;29.50;;;26.70;;
8572;SDS011;4324;42.012;24.872;2023-06-05T09:16:20;19.37;;;16.87;;
8572;SDS011;4324;42.012;24.872;2023-06-05T09:18:51;17.30;;;15.60;;
8572;SDS011;4324;42.012;24.872;2023-06-05T09:21:19;11.30;;;10.20;;
8572;SDS011;4324;42.012;24.872;2023-06-05T09:23:46;12.13;;;9.30;;
8572;SDS011;4324;42.012;24.872;2023-06-05T09:26:14;12.07;;;10.97;;
8572;SDS011;4324;42.012;24.872;2023-06-05T09:31:25;10.13;;;9.23;;
8572;SDS011;4324;42.012;24.872;2023-06-05T09:33:55;11.23;;;10.13;;
8572;SDS011;4324;42.012;24.872;2023-06-05T09:36:23;10.13;;;9.10;;
8572;SDS011;4324;42.012;24.872;2023-06-05T09:38:52;9.50;;;8.23;;
8572;SDS011;4324;42.012;24.872;2023-06-05T09:41:21;11.07;;;8.50;;
8572;SDS011;4324;42.012;24.872;2023-06-05T09:43:48;8.90;;;8.03;;
8572;SDS011;4324;42.012;24.872;2023-06-05T09:46:15;8.13;;;7.50;;
8572;SDS011;4324;42.012;24.872;2023-06-05T09:48:42;8.80;;;8.00;;
8572;SDS011;4324;42.012;24.872;2023-06-05T09:51:18;10.37;;;9.00;;
8572;SDS011;4324;42.012;24.872;2023-06-05T09:53:46;10.93;;;9.93;;
8572;SDS011;4324;42.012;24.872;2023-06-05T09:56:14;8.40;;;7.57;;
8572;SDS011;4324;42.012;24.872;2023-06-05T09:58:45;8.07;;;7.27;;
8572;SDS011;4324;42.012;24.872;2023-06-05T10:01:16;8.90;;;7.83;;
8572;SDS011;4324;42.012;24.872;2023-06-05T10:03:47;8.03;;;7.30;;
8572;SDS011;4324;42.012;24.872;2023-06-05T10:06:17;7.40;;;6.70;;
8572;SDS011;4324;42.012;24.872;2023-06-05T10:08:49;21.03;;;18.70;;
8572;SDS011;4324;42.012;24.872;2023-06-05T10:11:18;13.40;;;12.20;;
8572;SDS011;4324;42.012;24.872;2023-06-05T10:13:48;8.90;;;8.20;;
8572;SDS011;4324;42.012;24.872;2023-06-05T10:16:16;9.77;;;8.90;;
8572;SDS011;4324;42.012;24.872;2023-06-05T10:18:45;8.10;;;7.17;;
8572;SDS011;4324;42.012;24.872;2023-06-05T10:21:13;9.00;;;7.23;;
8572;SDS011;4324;42.012;24.872;2023-06-05T10:23:41;7.03;;;6.37;;
8572;SDS011;4324;42.012;24.872;2023-06-05T10:26:14;7.00;;;6.40;;
8572;SDS011;4324;42.012;24.872;2023-06-05T10:28:51;5.93;;;5.43;;
8572;SDS011;4324;42.012;24.872;2023-06-05T10:31:32;6.53;;;5.63;;
8572;SDS011;4324;42.012;24.872;2023-06-05T10:34:14;6.30;;;5.77;;
8572;SDS011;4324;42.012;24.872;2023-06-05T10:40:05;5.90;;;5.37;;
8572;SDS011;4324;42.012;24.872;2023-06-05T10:42:34;8.23;;;7.53;;
8572;SDS011;4324;42.012;24.872;2023-06-05T10:45:04;5.57;;;5.13;;
8572;SDS011;4324;42.012;24.872;2023-06-05T10:47:50;23.30;;;21.20;;
8572;SDS011;4324;42.012;24.872;2023-06-05T10:50:22;34.80;;;31.17;;
8572;SDS011;4324;42.012;24.872;2023-06-05T10:52:54;8.80;;;7.55;;
8572;SDS011;4324;42.012;24.872;2023-06-05T10:55:23;13.70;;;12.40;;
8572;SDS011;4324;42.012;24.872;2023-06-05T10:58:10;9.10;;;8.20;;
8572;SDS011;4324;42.012;24.872;2023-06-05T11:01:15;12.93;;;11.47;;
8572;SDS011;4324;42.012;24.872;2023-06-05T11:03:57;6.25;;;5.75;;
8572;SDS011;4324;42.012;24.872;2023-06-05T11:06:25;6.13;;;5.53;;
8572;SDS011;4324;42.012;24.872;2023-06-05T11:09:09;5.50;;;5.00;;
8572;SDS011;4324;42.012;24.872;2023-06-05T11:11:57;6.72;;;5.53;;
8572;SDS011;4324;42.012;24.872;2023-06-05T11:14:24;10.63;;;9.63;;
8572;SDS011;4324;42.012;24.872;2023-06-05T11:19:55;8.82;;;7.25;;
8572;SDS011;4324;42.012;24.872;2023-06-05T11:22:22;9.90;;;4.93;;
8572;SDS011;4324;42.012;24.872;2023-06-05T11:27:53;5.20;;;4.30;;
8572;SDS011;4324;42.012;24.872;2023-06-05T11:30:22;4.85;;;4.35;;
8572;SDS011;4324;42.012;24.872;2023-06-05T11:32:53;5.43;;;4.93;;
8572;SDS011;4324;42.012;24.872;2023-06-05T11:35:24;5.20;;;4.80;;
8572;SDS011;4324;42.012;24.872;2023-06-05T11:38:06;4.78;;;3.97;;
8572;SDS011;4324;42.012;24.872;2023-06-05T11:40:34;4.75;;;4.22;;
8572;SDS011;4324;42.012;24.872;2023-06-05T11:43:02;8.23;;;6.33;;
8572;SDS011;4324;42.012;24.872;2023-06-05T11:45:31;6.40;;;4.67;;
8572;SDS011;4324;42.012;24.872;2023-06-05T11:48:07;6.03;;;4.40;;
8572;SDS011;4324;42.012;24.872;2023-06-05T11:50:35;6.22;;;4.63;;
8572;SDS011;4324;42.012;24.872;2023-06-05T11:53:05;4.85;;;4.20;;
8572;SDS011;4324;42.012;24.872;2023-06-05T11:55:33;5.38;;;4.22;;
8572;SDS011;4324;42.012;24.872;2023-06-05T11:58:09;5.13;;;4.15;;
8572;SDS011;4324;42.012;24.872;2023-06-05T12:00:36;5.22;;;3.75;;
8572;SDS011;4324;42.012;24.872;2023-06-05T12:03:03;6.80;;;4.07;;
8572;SDS011;4324;42.012;24.872;2023-06-05T12:05:31;7.45;;;4.88;;
8572;SDS011;4324;42.012;24.872;2023-06-05T12:10:51;5.22;;;4.35;;
8572;SDS011;4324;42.012;24.872;2023-06-05T12:13:17;5.83;;;4.27;;
8572;SDS011;4324;42.012;24.872;2023-06-05T12:15:55;6.38;;;4.10;;
8572;SDS011;4324;42.012;24.872;2023-06-05T12:18:30;4.93;;;4.53;;
8572;SDS011;4324;42.012;24.872;2023-06-05T12:21:00;5.88;;;5.18;;
8572;SDS011;4324;42.012;24.872;2023-06-05T12:23:28;4.88;;;4.25;;
8572;SDS011;4324;42.012;24.872;2023-06-05T12:25:58;4.20;;;3.80;;
8572;SDS011;4324;42.012;24.872;2023-06-05T12:28:29;7.60;;;5.43;;
8572;SDS011;4324;42.012;24.872;2023-06-05T12:30:57;4.35;;;4.00;;
8572;SDS011;4324;42.012;24.872;2023-06-05T12:33:24;4.82;;;4.43;;
8572;SDS011;4324;42.012;24.872;2023-06-05T12:38:38;4.32;;;4.03;;
8572;SDS011;4324;42.012;24.872;2023-06-05T12:41:06;4.50;;;3.90;;
8572;SDS011;4324;42.012;24.872;2023-06-05T12:43:33;4.97;;;4.47;;
8572;SDS011;4324;42.012;24.872;2023-06-05T12:46:01;4.20;;;3.85;;
8572;SDS011;4324;42.012;24.872;2023-06-05T12:48:28;5.30;;;4.40;;
8572;SDS011;4324;42.012;24.872;2023-06-05T12:50:55;4.78;;;4.32;;
8572;SDS011;4324;42.012;24.872;2023-06-05T12:53:23;4.53;;;4.13;;
8572;SDS011;4324;42.012;24.872;2023-06-05T12:55:53;7.43;;;6.70;;
8572;SDS011;4324;42.012;24.872;2023-06-05T12:58:20;5.22;;;4.57;;
8572;SDS011;4324;42.012;24.872;2023-06-05T13:00:48;4.28;;;3.97;;
8572;SDS011;4324;42.012;24.872;2023-06-05T13:03:15;5.00;;;4.50;;
8572;SDS011;4324;42.012;24.872;2023-06-05T13:05:42;5.60;;;5.10;;
8572;SDS011;4324;42.012;24.872;2023-06-05T13:08:09;5.05;;;4.50;;
8572;SDS011;4324;42.012;24.872;2023-06-05T13:10:37;4.30;;;4.00;;
8572;SDS011;4324;42.012;24.872;2023-06-05T13:13:05;4.55;;;4.18;;
8572;SDS011;4324;42.012;24.872;2023-06-05T13:15:32;4.70;;;4.28;;
8572;SDS011;4324;42.012;24.872;2023-06-05T13:17:59;4.80;;;4.40;;
8572;SDS011;4324;42.012;24.872;2023-06-05T13:20:25;5.32;;;4.53;;
8572;SDS011;4324;42.012;24.872;2023-06-05T13:22:53;8.47;;;4.13;;
8572;SDS011;4324;42.012;24.872;2023-06-05T13:25:20;4.45;;;4.05;;
8572;SDS011;4324;42.012;24.872;2023-06-05T13:27:48;5.32;;;4.70;;
8572;SDS011;4324;42.012;24.872;2023-06-05T13:30:15;6.00;;;4.28;;
8572;SDS011;4324;42.012;24.872;2023-06-05T13:32:42;5.00;;;4.60;;
8572;SDS011;4324;42.012;24.872;2023-06-05T13:35:09;5.30;;;4.80;;
8572;SDS011;4324;42.012;24.872;2023-06-05T13:37:36;4.70;;;4.20;;
8572;SDS011;4324;42.012;24.872;2023-06-05T13:40:04;5.32;;;4.70;;
8572;SDS011;4324;42.012;24.872;2023-06-05T13:42:35;4.85;;;4.38;;
8572;SDS011;4324;42.012;24.872;2023-06-05T13:45:04;4.77;;;4.33;;
8572;SDS011;4324;42.012;24.872;2023-06-05T13:47:34;4.23;;;3.93;;
8572;SDS011;4324;42.012;24.872;2023-06-05T13:50:01;4.80;;;4.50;;
8572;SDS011;4324;42.012;24.872;2023-06-05T13:52:28;5.40;;;4.40;;
8572;SDS011;4324;42.012;24.872;2023-06-05T13:54:55;6.33;;;5.10;;
8572;SDS011;4324;42.012;24.872;2023-06-05T13:57:22;5.10;;;4.40;;
8572;SDS011;4324;42.012;24.872;2023-06-05T13:59:48;5.90;;;4.78;;
8572;SDS011;4324;42.012;24.872;2023-06-05T14:02:17;5.90;;;4.87;;
8572;SDS011;4324;42.012;24.872;2023-06-05T14:04:43;4.47;;;4.03;;
8572;SDS011;4324;42.012;24.872;2023-06-05T14:07:10;9.33;;;8.27;;
8572;SDS011;4324;42.012;24.872;2023-06-05T14:09:37;6.20;;;4.80;;
8572;SDS011;4324;42.012;24.872;2023-06-05T14:12:04;6.63;;;4.23;;
8572;SDS011;4324;42.012;24.872;2023-06-05T14:14:32;4.83;;;4.30;;
8572;SDS011;4324;42.012;24.872;2023-06-05T14:16:59;6.03;;;4.23;;
8572;SDS011;4324;42.012;24.872;2023-06-05T14:19:27;6.20;;;4.70;;
8572;SDS011;4324;42.012;24.872;2023-06-05T14:21:54;5.20;;;4.70;;
8572;SDS011;4324;42.012;24.872;2023-06-05T14:24:21;6.13;;;4.30;;
8572;SDS011;4324;42.012;24.872;2023-06-05T14:26:48;7.60;;;4.50;;
8572;SDS011;4324;42.012;24.872;2023-06-05T14:29:15;5.17;;;4.67;;
8572;SDS011;4324;42.012;24.872;2023-06-05T14:31:42;7.20;;;4.47;;
8572;SDS011;4324;42.012;24.872;2023-06-05T14:34:08;7.00;;;6.23;;
8572;SDS011;4324;42.012;24.872;2023-06-05T14:36:39;4.80;;;3.90;;
8572;SDS011;4324;42.012;24.872;2023-06-05T14:39:06;4.77;;;3.90;;
8572;SDS011;4324;42.012;24.872;2023-06-05T14:41:34;5.67;;;3.97;;
8572;SDS011;4324;42.012;24.872;2023-06-05T14:44:01;4.63;;;4.33;;
8572;SDS011;4324;42.012;24.872;2023-06-05T14:46:31;4.67;;;3.40;;
8572;SDS011;4324;42.012;24.872;2023-06-05T14:48:57;5.27;;;3.90;;
8572;SDS011;4324;42.012;24.872;2023-06-05T14:51:24;6.40;;;4.07;;
8572;SDS011;4324;42.012;24.872;2023-06-05T14:53:52;4.50;;;3.93;;
8572;SDS011;4324;42.012;24.872;2023-06-05T14:56:19;6.53;;;4.13;;
8572;SDS011;4324;42.012;24.872;2023-06-05T14:58:47;5.97;;;3.80;;
8572;SDS011;4324;42.012;24.872;2023-06-05T15:01:17;4.20;;;3.77;;
8572;SDS011;4324;42.012;24.872;2023-06-05T15:03:44;5.43;;;4.00;;
8572;SDS011;4324;42.012;24.872;2023-06-05T15:06:12;4.30;;;3.90;;
8572;SDS011;4324;42.012;24.872;2023-06-05T15:08:39;4.40;;;3.90;;
8572;SDS011;4324;42.012;24.872;2023-06-05T15:11:07;6.40;;;3.80;;
8572;SDS011;4324;42.012;24.872;2023-06-05T15:13:35;5.00;;;4.50;;
8572;SDS011;4324;42.012;24.872;2023-06-05T15:16:01;6.93;;;4.13;;